Bellwood, Alabama
Current Conditions -  °F | °C
As of 1:58 PM on Friday 21 Nov 2014 (Local Time) from KOZR Reporting Station
Clear Clear  
Wind Chill: 69°   Ceiling: Unl
Heat Index: 69°   Visibility: 10mi
Dew Point: 42°   Wind: 10mph
Humidity: 39%   Direction: 40°NE
Pressure: 30.3"   Gusts: NA
Location:  31.17°N, 85.79°W
Report Text: KOZR 211958Z AUTO 04009KT 10SM CLR 20/06 A3030 RMK AO2 SLP263 T02040058
Loading
Personal Weather Stations






























Interactive Weather Map New forecast layout! Learn more

10-Day Weather Forecast

Advertisements
Track Severe Weather on mobile